sensor_id;sensor_type;location;lat;lon;timestamp;P1;durP1;ratioP1;P2;durP2;ratioP2
13327;SDS011;6733;51.044;3.746;2024-01-30T00:00:10;5.97;;;4.10;;
13327;SDS011;6733;51.044;3.746;2024-01-30T00:02:36;6.77;;;4.50;;
13327;SDS011;6733;51.044;3.746;2024-01-30T00:05:02;6.55;;;4.63;;
13327;SDS011;6733;51.044;3.746;2024-01-30T00:07:29;7.40;;;5.53;;
13327;SDS011;6733;51.044;3.746;2024-01-30T00:09:55;5.67;;;4.73;;
13327;SDS011;6733;51.044;3.746;2024-01-30T00:12:21;6.93;;;5.13;;
13327;SDS011;6733;51.044;3.746;2024-01-30T00:14:47;5.03;;;4.43;;
13327;SDS011;6733;51.044;3.746;2024-01-30T00:17:14;7.43;;;4.93;;
13327;SDS011;6733;51.044;3.746;2024-01-30T00:19:40;5.75;;;4.43;;
13327;SDS011;6733;51.044;3.746;2024-01-30T00:22:06;8.35;;;4.95;;
13327;SDS011;6733;51.044;3.746;2024-01-30T00:24:33;7.15;;;5.05;;
13327;SDS011;6733;51.044;3.746;2024-01-30T00:27:00;7.50;;;4.47;;
13327;SDS011;6733;51.044;3.746;2024-01-30T00:29:26;6.93;;;4.90;;
13327;SDS011;6733;51.044;3.746;2024-01-30T00:31:55;7.20;;;5.10;;
13327;SDS011;6733;51.044;3.746;2024-01-30T00:34:22;7.97;;;4.90;;
13327;SDS011;6733;51.044;3.746;2024-01-30T00:36:48;6.07;;;4.70;;
13327;SDS011;6733;51.044;3.746;2024-01-30T00:39:14;5.40;;;4.60;;
13327;SDS011;6733;51.044;3.746;2024-01-30T00:41:41;7.43;;;4.25;;
13327;SDS011;6733;51.044;3.746;2024-01-30T00:44:07;8.75;;;4.70;;
13327;SDS011;6733;51.044;3.746;2024-01-30T00:46:34;9.10;;;4.80;;
13327;SDS011;6733;51.044;3.746;2024-01-30T00:49:01;7.93;;;4.37;;
13327;SDS011;6733;51.044;3.746;2024-01-30T00:51:28;6.27;;;4.90;;
13327;SDS011;6733;51.044;3.746;2024-01-30T00:53:55;5.63;;;4.53;;
13327;SDS011;6733;51.044;3.746;2024-01-30T00:56:21;6.97;;;4.23;;
13327;SDS011;6733;51.044;3.746;2024-01-30T00:58:48;6.53;;;4.77;;
13327;SDS011;6733;51.044;3.746;2024-01-30T01:01:14;8.03;;;5.00;;
13327;SDS011;6733;51.044;3.746;2024-01-30T01:03:41;6.83;;;4.87;;
13327;SDS011;6733;51.044;3.746;2024-01-30T01:06:09;6.63;;;4.80;;
13327;SDS011;6733;51.044;3.746;2024-01-30T01:08:36;6.67;;;4.93;;
13327;SDS011;6733;51.044;3.746;2024-01-30T01:11:02;6.03;;;4.60;;
13327;SDS011;6733;51.044;3.746;2024-01-30T01:13:29;6.03;;;4.50;;
13327;SDS011;6733;51.044;3.746;2024-01-30T01:15:55;7.00;;;5.10;;
13327;SDS011;6733;51.044;3.746;2024-01-30T01:18:21;5.83;;;4.90;;
13327;SDS011;6733;51.044;3.746;2024-01-30T01:20:48;7.57;;;5.30;;
13327;SDS011;6733;51.044;3.746;2024-01-30T01:23:14;6.30;;;4.90;;
13327;SDS011;6733;51.044;3.746;2024-01-30T01:25:40;7.10;;;4.60;;
13327;SDS011;6733;51.044;3.746;2024-01-30T01:28:07;8.77;;;4.75;;
13327;SDS011;6733;51.044;3.746;2024-01-30T01:30:33;8.33;;;4.87;;
13327;SDS011;6733;51.044;3.746;2024-01-30T01:32:59;7.20;;;5.00;;
13327;SDS011;6733;51.044;3.746;2024-01-30T01:35:27;8.50;;;5.10;;
13327;SDS011;6733;51.044;3.746;2024-01-30T01:37:54;5.30;;;4.63;;
13327;SDS011;6733;51.044;3.746;2024-01-30T01:40:23;9.10;;;5.17;;
13327;SDS011;6733;51.044;3.746;2024-01-30T01:42:51;6.87;;;4.80;;
13327;SDS011;6733;51.044;3.746;2024-01-30T01:45:18;7.57;;;4.63;;
13327;SDS011;6733;51.044;3.746;2024-01-30T01:47:45;8.07;;;4.70;;
13327;SDS011;6733;51.044;3.746;2024-01-30T01:50:13;6.90;;;5.10;;
13327;SDS011;6733;51.044;3.746;2024-01-30T01:52:44;6.47;;;4.67;;
13327;SDS011;6733;51.044;3.746;2024-01-30T01:55:17;7.57;;;4.80;;
13327;SDS011;6733;51.044;3.746;2024-01-30T01:57:50;7.83;;;4.90;;
13327;SDS011;6733;51.044;3.746;2024-01-30T02:00:18;6.87;;;5.13;;
13327;SDS011;6733;51.044;3.746;2024-01-30T02:02:46;6.67;;;5.00;;
13327;SDS011;6733;51.044;3.746;2024-01-30T02:05:12;5.43;;;4.77;;
13327;SDS011;6733;51.044;3.746;2024-01-30T02:07:39;7.73;;;4.70;;
13327;SDS011;6733;51.044;3.746;2024-01-30T02:10:07;6.45;;;5.00;;
13327;SDS011;6733;51.044;3.746;2024-01-30T02:12:35;7.57;;;4.57;;
13327;SDS011;6733;51.044;3.746;2024-01-30T02:15:01;7.73;;;5.47;;
13327;SDS011;6733;51.044;3.746;2024-01-30T02:17:28;5.30;;;4.80;;
13327;SDS011;6733;51.044;3.746;2024-01-30T02:19:54;6.20;;;4.23;;
13327;SDS011;6733;51.044;3.746;2024-01-30T02:22:20;6.57;;;5.07;;
13327;SDS011;6733;51.044;3.746;2024-01-30T02:24:48;8.03;;;4.77;;
13327;SDS011;6733;51.044;3.746;2024-01-30T02:27:14;7.03;;;5.17;;
13327;SDS011;6733;51.044;3.746;2024-01-30T02:29:41;5.50;;;4.93;;
13327;SDS011;6733;51.044;3.746;2024-01-30T02:32:07;7.87;;;4.80;;
13327;SDS011;6733;51.044;3.746;2024-01-30T02:34:58;6.87;;;5.00;;
13327;SDS011;6733;51.044;3.746;2024-01-30T02:37:49;6.87;;;4.67;;
13327;SDS011;6733;51.044;3.746;2024-01-30T02:40:40;6.93;;;5.23;;
13327;SDS011;6733;51.044;3.746;2024-01-30T02:43:31;6.80;;;5.23;;
13327;SDS011;6733;51.044;3.746;2024-01-30T02:46:22;8.27;;;5.27;;
13327;SDS011;6733;51.044;3.746;2024-01-30T02:49:13;8.53;;;5.90;;
13327;SDS011;6733;51.044;3.746;2024-01-30T02:52:07;7.23;;;5.60;;
13327;SDS011;6733;51.044;3.746;2024-01-30T02:54:58;6.97;;;5.10;;
13327;SDS011;6733;51.044;3.746;2024-01-30T02:57:49;8.47;;;5.60;;
13327;SDS011;6733;51.044;3.746;2024-01-30T03:00:40;6.83;;;5.17;;
13327;SDS011;6733;51.044;3.746;2024-01-30T03:03:06;8.37;;;5.50;;
13327;SDS011;6733;51.044;3.746;2024-01-30T03:05:32;6.97;;;5.23;;
13327;SDS011;6733;51.044;3.746;2024-01-30T03:07:58;7.30;;;5.30;;
13327;SDS011;6733;51.044;3.746;2024-01-30T03:10:25;6.90;;;5.00;;
13327;SDS011;6733;51.044;3.746;2024-01-30T03:12:51;7.35;;;4.82;;
13327;SDS011;6733;51.044;3.746;2024-01-30T03:15:17;11.20;;;5.88;;
13327;SDS011;6733;51.044;3.746;2024-01-30T03:17:43;10.30;;;5.77;;
13327;SDS011;6733;51.044;3.746;2024-01-30T03:20:10;7.67;;;5.80;;
13327;SDS011;6733;51.044;3.746;2024-01-30T03:22:36;9.50;;;5.53;;
13327;SDS011;6733;51.044;3.746;2024-01-30T03:25:04;9.60;;;6.13;;
13327;SDS011;6733;51.044;3.746;2024-01-30T03:27:30;8.93;;;6.30;;
13327;SDS011;6733;51.044;3.746;2024-01-30T03:29:56;8.47;;;5.53;;
13327;SDS011;6733;51.044;3.746;2024-01-30T03:32:23;7.07;;;5.53;;
13327;SDS011;6733;51.044;3.746;2024-01-30T03:34:49;9.90;;;6.20;;
13327;SDS011;6733;51.044;3.746;2024-01-30T03:37:15;10.93;;;5.83;;
13327;SDS011;6733;51.044;3.746;2024-01-30T03:39:41;6.67;;;5.20;;
13327;SDS011;6733;51.044;3.746;2024-01-30T03:42:07;6.80;;;5.17;;
13327;SDS011;6733;51.044;3.746;2024-01-30T03:44:34;7.73;;;5.40;;
13327;SDS011;6733;51.044;3.746;2024-01-30T03:47:00;6.93;;;5.07;;
13327;SDS011;6733;51.044;3.746;2024-01-30T03:49:26;5.90;;;4.93;;
13327;SDS011;6733;51.044;3.746;2024-01-30T03:51:52;7.70;;;4.87;;
13327;SDS011;6733;51.044;3.746;2024-01-30T03:54:18;6.77;;;4.83;;
13327;SDS011;6733;51.044;3.746;2024-01-30T03:56:45;7.23;;;5.20;;
13327;SDS011;6733;51.044;3.746;2024-01-30T03:59:11;8.17;;;5.60;;
13327;SDS011;6733;51.044;3.746;2024-01-30T04:01:37;10.95;;;6.07;;
13327;SDS011;6733;51.044;3.746;2024-01-30T04:04:03;8.00;;;5.93;;
13327;SDS011;6733;51.044;3.746;2024-01-30T04:06:30;8.70;;;5.13;;
13327;SDS011;6733;51.044;3.746;2024-01-30T04:08:56;8.50;;;5.67;;
13327;SDS011;6733;51.044;3.746;2024-01-30T04:11:23;7.77;;;5.77;;
13327;SDS011;6733;51.044;3.746;2024-01-30T04:13:49;7.40;;;5.20;;
13327;SDS011;6733;51.044;3.746;2024-01-30T04:16:19;9.27;;;5.35;;
13327;SDS011;6733;51.044;3.746;2024-01-30T04:18:48;8.07;;;5.25;;
13327;SDS011;6733;51.044;3.746;2024-01-30T04:21:15;8.03;;;5.00;;
13327;SDS011;6733;51.044;3.746;2024-01-30T04:23:41;8.43;;;5.60;;
13327;SDS011;6733;51.044;3.746;2024-01-30T04:26:07;8.83;;;5.40;;
13327;SDS011;6733;51.044;3.746;2024-01-30T04:28:33;7.93;;;5.43;;
13327;SDS011;6733;51.044;3.746;2024-01-30T04:31:00;9.47;;;5.90;;
13327;SDS011;6733;51.044;3.746;2024-01-30T04:33:26;8.37;;;5.73;;
13327;SDS011;6733;51.044;3.746;2024-01-30T04:35:52;7.80;;;5.77;;
13327;SDS011;6733;51.044;3.746;2024-01-30T04:38:18;6.60;;;5.10;;
13327;SDS011;6733;51.044;3.746;2024-01-30T04:40:45;6.60;;;5.40;;
13327;SDS011;6733;51.044;3.746;2024-01-30T04:43:11;9.27;;;6.47;;
13327;SDS011;6733;51.044;3.746;2024-01-30T04:45:37;6.30;;;5.20;;
13327;SDS011;6733;51.044;3.746;2024-01-30T04:48:03;6.27;;;5.47;;
13327;SDS011;6733;51.044;3.746;2024-01-30T04:50:30;6.50;;;5.38;;
13327;SDS011;6733;51.044;3.746;2024-01-30T04:52:56;8.43;;;5.70;;
13327;SDS011;6733;51.044;3.746;2024-01-30T04:55:22;8.70;;;5.20;;
13327;SDS011;6733;51.044;3.746;2024-01-30T04:57:48;7.27;;;5.60;;
13327;SDS011;6733;51.044;3.746;2024-01-30T05:00:15;7.53;;;5.60;;
13327;SDS011;6733;51.044;3.746;2024-01-30T05:02:41;8.00;;;5.57;;
13327;SDS011;6733;51.044;3.746;2024-01-30T05:05:07;8.30;;;5.40;;
13327;SDS011;6733;51.044;3.746;2024-01-30T05:07:34;10.07;;;5.40;;
13327;SDS011;6733;51.044;3.746;2024-01-30T05:10:00;8.60;;;5.90;;
13327;SDS011;6733;51.044;3.746;2024-01-30T05:12:26;7.57;;;5.30;;
13327;SDS011;6733;51.044;3.746;2024-01-30T05:14:52;7.95;;;5.38;;
13327;SDS011;6733;51.044;3.746;2024-01-30T05:17:18;9.70;;;5.97;;
13327;SDS011;6733;51.044;3.746;2024-01-30T05:19:45;11.80;;;5.50;;
13327;SDS011;6733;51.044;3.746;2024-01-30T05:22:11;7.13;;;5.30;;
13327;SDS011;6733;51.044;3.746;2024-01-30T05:24:41;7.27;;;5.30;;
13327;SDS011;6733;51.044;3.746;2024-01-30T05:27:08;7.33;;;4.77;;
13327;SDS011;6733;51.044;3.746;2024-01-30T05:29:34;7.90;;;5.40;;
13327;SDS011;6733;51.044;3.746;2024-01-30T05:32:00;13.53;;;5.40;;
13327;SDS011;6733;51.044;3.746;2024-01-30T05:34:27;8.20;;;5.67;;
13327;SDS011;6733;51.044;3.746;2024-01-30T05:36:53;6.67;;;4.77;;
13327;SDS011;6733;51.044;3.746;2024-01-30T05:39:19;9.60;;;5.47;;
13327;SDS011;6733;51.044;3.746;2024-01-30T05:41:46;6.80;;;5.43;;
13327;SDS011;6733;51.044;3.746;2024-01-30T05:44:12;8.90;;;5.40;;
13327;SDS011;6733;51.044;3.746;2024-01-30T05:46:38;7.00;;;5.30;;
13327;SDS011;6733;51.044;3.746;2024-01-30T05:49:04;8.37;;;5.10;;
13327;SDS011;6733;51.044;3.746;2024-01-30T05:51:31;6.87;;;5.13;;
13327;SDS011;6733;51.044;3.746;2024-01-30T05:53:57;8.77;;;5.33;;
13327;SDS011;6733;51.044;3.746;2024-01-30T05:56:24;8.13;;;5.60;;
13327;SDS011;6733;51.044;3.746;2024-01-30T05:58:50;7.07;;;5.37;;
13327;SDS011;6733;51.044;3.746;2024-01-30T06:01:16;10.60;;;5.30;;
13327;SDS011;6733;51.044;3.746;2024-01-30T06:03:42;10.93;;;5.47;;
13327;SDS011;6733;51.044;3.746;2024-01-30T06:06:09;8.20;;;4.80;;
13327;SDS011;6733;51.044;3.746;2024-01-30T06:08:35;8.40;;;5.45;;
13327;SDS011;6733;51.044;3.746;2024-01-30T06:11:01;8.43;;;5.80;;
13327;SDS011;6733;51.044;3.746;2024-01-30T06:13:27;7.70;;;5.40;;
13327;SDS011;6733;51.044;3.746;2024-01-30T06:15:56;9.38;;;5.30;;
13327;SDS011;6733;51.044;3.746;2024-01-30T06:18:22;8.50;;;5.60;;
13327;SDS011;6733;51.044;3.746;2024-01-30T06:20:48;11.53;;;5.83;;
13327;SDS011;6733;51.044;3.746;2024-01-30T06:23:15;8.93;;;5.67;;
13327;SDS011;6733;51.044;3.746;2024-01-30T06:25:41;7.00;;;4.97;;
13327;SDS011;6733;51.044;3.746;2024-01-30T06:28:07;7.37;;;4.93;;
13327;SDS011;6733;51.044;3.746;2024-01-30T06:30:34;9.37;;;4.97;;
13327;SDS011;6733;51.044;3.746;2024-01-30T06:33:00;7.27;;;5.27;;
13327;SDS011;6733;51.044;3.746;2024-01-30T06:35:26;8.30;;;4.70;;
13327;SDS011;6733;51.044;3.746;2024-01-30T06:37:54;8.27;;;5.60;;
13327;SDS011;6733;51.044;3.746;2024-01-30T06:40:20;6.43;;;5.00;;
13327;SDS011;6733;51.044;3.746;2024-01-30T06:42:46;7.50;;;4.90;;
13327;SDS011;6733;51.044;3.746;2024-01-30T06:45:13;8.93;;;5.15;;
13327;SDS011;6733;51.044;3.746;2024-01-30T06:47:39;9.65;;;5.47;;
13327;SDS011;6733;51.044;3.746;2024-01-30T06:50:05;8.40;;;5.65;;
13327;SDS011;6733;51.044;3.746;2024-01-30T06:52:32;9.32;;;5.53;;
13327;SDS011;6733;51.044;3.746;2024-01-30T06:54:58;14.50;;;5.95;;
13327;SDS011;6733;51.044;3.746;2024-01-30T06:57:24;8.25;;;5.35;;
13327;SDS011;6733;51.044;3.746;2024-01-30T06:59:51;8.60;;;5.13;;
13327;SDS011;6733;51.044;3.746;2024-01-30T07:02:17;8.30;;;5.70;;
13327;SDS011;6733;51.044;3.746;2024-01-30T07:04:44;9.00;;;5.35;;
13327;SDS011;6733;51.044;3.746;2024-01-30T07:07:10;9.25;;;5.30;;
13327;SDS011;6733;51.044;3.746;2024-01-30T07:09:38;6.43;;;4.93;;
13327;SDS011;6733;51.044;3.746;2024-01-30T07:12:05;6.37;;;4.73;;
13327;SDS011;6733;51.044;3.746;2024-01-30T07:14:31;8.68;;;5.47;;
13327;SDS011;6733;51.044;3.746;2024-01-30T07:16:58;8.60;;;5.22;;
13327;SDS011;6733;51.044;3.746;2024-01-30T07:19:27;7.60;;;5.10;;
13327;SDS011;6733;51.044;3.746;2024-01-30T07:21:53;11.30;;;5.73;;
13327;SDS011;6733;51.044;3.746;2024-01-30T07:24:19;10.57;;;5.50;;
13327;SDS011;6733;51.044;3.746;2024-01-30T07:26:46;7.68;;;4.90;;
13327;SDS011;6733;51.044;3.746;2024-01-30T07:29:12;9.32;;;5.82;;
13327;SDS011;6733;51.044;3.746;2024-01-30T07:31:38;11.15;;;5.43;;
13327;SDS011;6733;51.044;3.746;2024-01-30T07:34:05;10.05;;;6.13;;
13327;SDS011;6733;51.044;3.746;2024-01-30T07:36:32;12.43;;;6.77;;
13327;SDS011;6733;51.044;3.746;2024-01-30T07:38:58;11.60;;;6.82;;
13327;SDS011;6733;51.044;3.746;2024-01-30T07:41:24;7.97;;;6.30;;
13327;SDS011;6733;51.044;3.746;2024-01-30T07:43:50;8.93;;;6.43;;
13327;SDS011;6733;51.044;3.746;2024-01-30T07:46:17;11.35;;;6.05;;
13327;SDS011;6733;51.044;3.746;2024-01-30T07:48:43;8.65;;;6.53;;
13327;SDS011;6733;51.044;3.746;2024-01-30T07:51:10;10.35;;;6.28;;
13327;SDS011;6733;51.044;3.746;2024-01-30T07:53:36;10.70;;;6.32;;
13327;SDS011;6733;51.044;3.746;2024-01-30T07:56:02;9.85;;;6.47;;
13327;SDS011;6733;51.044;3.746;2024-01-30T07:58:29;10.27;;;6.47;;
13327;SDS011;6733;51.044;3.746;2024-01-30T08:00:55;10.40;;;6.80;;
13327;SDS011;6733;51.044;3.746;2024-01-30T08:03:24;8.63;;;6.47;;
13327;SDS011;6733;51.044;3.746;2024-01-30T08:05:50;9.02;;;6.35;;
13327;SDS011;6733;51.044;3.746;2024-01-30T08:08:19;13.55;;;5.85;;
13327;SDS011;6733;51.044;3.746;2024-01-30T08:10:45;9.65;;;5.43;;
13327;SDS011;6733;51.044;3.746;2024-01-30T08:13:11;12.50;;;6.07;;
13327;SDS011;6733;51.044;3.746;2024-01-30T08:15:40;9.45;;;5.15;;
13327;SDS011;6733;51.044;3.746;2024-01-30T08:18:07;7.95;;;5.40;;
13327;SDS011;6733;51.044;3.746;2024-01-30T08:20:33;9.80;;;5.45;;
13327;SDS011;6733;51.044;3.746;2024-01-30T08:22:59;9.70;;;6.50;;
13327;SDS011;6733;51.044;3.746;2024-01-30T08:25:26;8.93;;;5.57;;
13327;SDS011;6733;51.044;3.746;2024-01-30T08:27:52;9.02;;;6.05;;
13327;SDS011;6733;51.044;3.746;2024-01-30T08:30:18;10.32;;;6.35;;
13327;SDS011;6733;51.044;3.746;2024-01-30T08:32:45;11.23;;;5.88;;
13327;SDS011;6733;51.044;3.746;2024-01-30T08:35:11;8.23;;;5.70;;
13327;SDS011;6733;51.044;3.746;2024-01-30T08:37:42;9.07;;;5.43;;
13327;SDS011;6733;51.044;3.746;2024-01-30T08:40:08;7.28;;;5.68;;
13327;SDS011;6733;51.044;3.746;2024-01-30T08:42:35;10.65;;;6.53;;
13327;SDS011;6733;51.044;3.746;2024-01-30T08:45:01;9.73;;;5.70;;
13327;SDS011;6733;51.044;3.746;2024-01-30T08:47:30;10.98;;;6.53;;
13327;SDS011;6733;51.044;3.746;2024-01-30T08:49:56;10.37;;;6.27;;
13327;SDS011;6733;51.044;3.746;2024-01-30T08:52:23;8.75;;;5.47;;
13327;SDS011;6733;51.044;3.746;2024-01-30T08:54:49;8.77;;;5.40;;
13327;SDS011;6733;51.044;3.746;2024-01-30T08:57:15;8.20;;;5.10;;
13327;SDS011;6733;51.044;3.746;2024-01-30T08:59:41;11.60;;;5.50;;
13327;SDS011;6733;51.044;3.746;2024-01-30T09:02:10;12.70;;;5.32;;
13327;SDS011;6733;51.044;3.746;2024-01-30T09:04:38;12.52;;;5.57;;
13327;SDS011;6733;51.044;3.746;2024-01-30T09:07:04;9.77;;;5.40;;
13327;SDS011;6733;51.044;3.746;2024-01-30T09:09:34;13.10;;;5.63;;
13327;SDS011;6733;51.044;3.746;2024-01-30T09:12:00;8.57;;;5.70;;
13327;SDS011;6733;51.044;3.746;2024-01-30T09:14:32;6.70;;;5.27;;
13327;SDS011;6733;51.044;3.746;2024-01-30T09:16:59;8.10;;;5.30;;
13327;SDS011;6733;51.044;3.746;2024-01-30T09:19:25;7.50;;;4.50;;
13327;SDS011;6733;51.044;3.746;2024-01-30T09:21:51;6.90;;;4.73;;
13327;SDS011;6733;51.044;3.746;2024-01-30T09:24:17;7.93;;;4.20;;
13327;SDS011;6733;51.044;3.746;2024-01-30T09:26:43;8.00;;;3.33;;
13327;SDS011;6733;51.044;3.746;2024-01-30T09:29:09;6.80;;;2.73;;
13327;SDS011;6733;51.044;3.746;2024-01-30T09:31:35;6.10;;;2.47;;
13327;SDS011;6733;51.044;3.746;2024-01-30T09:34:01;9.53;;;2.70;;
13327;SDS011;6733;51.044;3.746;2024-01-30T09:36:27;7.90;;;2.37;;
13327;SDS011;6733;51.044;3.746;2024-01-30T09:38:54;7.97;;;3.23;;
13327;SDS011;6733;51.044;3.746;2024-01-30T09:41:20;5.90;;;2.80;;
13327;SDS011;6733;51.044;3.746;2024-01-30T09:43:50;5.80;;;2.40;;
13327;SDS011;6733;51.044;3.746;2024-01-30T09:46:17;6.10;;;2.70;;
13327;SDS011;6733;51.044;3.746;2024-01-30T09:48:46;5.37;;;1.80;;
13327;SDS011;6733;51.044;3.746;2024-01-30T09:51:14;5.97;;;1.90;;
13327;SDS011;6733;51.044;3.746;2024-01-30T09:53:41;3.90;;;2.13;;
13327;SDS011;6733;51.044;3.746;2024-01-30T09:56:09;5.93;;;2.13;;
13327;SDS011;6733;51.044;3.746;2024-01-30T09:58:36;6.23;;;2.53;;
13327;SDS011;6733;51.044;3.746;2024-01-30T10:01:03;4.20;;;2.00;;
13327;SDS011;6733;51.044;3.746;2024-01-30T10:03:29;4.87;;;2.10;;
13327;SDS011;6733;51.044;3.746;2024-01-30T10:05:56;4.27;;;1.67;;
13327;SDS011;6733;51.044;3.746;2024-01-30T10:08:23;4.47;;;1.77;;
13327;SDS011;6733;51.044;3.746;2024-01-30T10:10:49;2.83;;;1.30;;
13327;SDS011;6733;51.044;3.746;2024-01-30T10:13:16;4.03;;;1.47;;
13327;SDS011;6733;51.044;3.746;2024-01-30T10:15:42;3.40;;;1.23;;
13327;SDS011;6733;51.044;3.746;2024-01-30T10:18:08;3.30;;;1.40;;
13327;SDS011;6733;51.044;3.746;2024-01-30T10:20:36;1.00;;;0.53;;
13327;SDS011;6733;51.044;3.746;2024-01-30T10:23:02;1.53;;;0.60;;
13327;SDS011;6733;51.044;3.746;2024-01-30T10:25:30;1.47;;;0.80;;
13327;SDS011;6733;51.044;3.746;2024-01-30T10:27:58;4.03;;;0.80;;
13327;SDS011;6733;51.044;3.746;2024-01-30T10:30:25;1.93;;;0.70;;
13327;SDS011;6733;51.044;3.746;2024-01-30T10:32:53;4.17;;;0.90;;
13327;SDS011;6733;51.044;3.746;2024-01-30T10:35:19;2.20;;;0.90;;
13327;SDS011;6733;51.044;3.746;2024-01-30T10:37:48;4.10;;;1.10;;
13327;SDS011;6733;51.044;3.746;2024-01-30T10:40:15;2.67;;;0.90;;
13327;SDS011;6733;51.044;3.746;2024-01-30T10:42:45;2.43;;;0.97;;
13327;SDS011;6733;51.044;3.746;2024-01-30T10:45:12;2.20;;;1.00;;
13327;SDS011;6733;51.044;3.746;2024-01-30T10:47:54;3.50;;;1.30;;
13327;SDS011;6733;51.044;3.746;2024-01-30T10:50:24;3.70;;;1.40;;
13327;SDS011;6733;51.044;3.746;2024-01-30T10:52:51;4.67;;;1.63;;
13327;SDS011;6733;51.044;3.746;2024-01-30T10:55:19;2.60;;;1.53;;
13327;SDS011;6733;51.044;3.746;2024-01-30T10:57:47;5.80;;;1.30;;
13327;SDS011;6733;51.044;3.746;2024-01-30T11:00:13;6.53;;;1.93;;
13327;SDS011;6733;51.044;3.746;2024-01-30T11:02:42;5.17;;;1.70;;
13327;SDS011;6733;51.044;3.746;2024-01-30T11:05:10;2.70;;;1.20;;
13327;SDS011;6733;51.044;3.746;2024-01-30T11:07:38;2.30;;;1.20;;
13327;SDS011;6733;51.044;3.746;2024-01-30T11:10:05;3.60;;;1.33;;
13327;SDS011;6733;51.044;3.746;2024-01-30T11:12:37;5.57;;;1.47;;
13327;SDS011;6733;51.044;3.746;2024-01-30T11:15:07;5.47;;;1.43;;
13327;SDS011;6733;51.044;3.746;2024-01-30T11:17:53;4.97;;;1.30;;
13327;SDS011;6733;51.044;3.746;2024-01-30T11:20:20;5.83;;;1.50;;
13327;SDS011;6733;51.044;3.746;2024-01-30T11:22:50;5.67;;;1.60;;
13327;SDS011;6733;51.044;3.746;2024-01-30T11:25:19;6.07;;;1.50;;
13327;SDS011;6733;51.044;3.746;2024-01-30T11:27:46;4.20;;;1.50;;
13327;SDS011;6733;51.044;3.746;2024-01-30T11:30:21;5.50;;;1.37;;
13327;SDS011;6733;51.044;3.746;2024-01-30T11:35:56;3.07;;;0.90;;
13327;SDS011;6733;51.044;3.746;2024-01-30T11:38:24;2.73;;;1.33;;
13327;SDS011;6733;51.044;3.746;2024-01-30T11:40:53;1.97;;;0.90;;
13327;SDS011;6733;51.044;3.746;2024-01-30T11:43:23;3.67;;;1.07;;
13327;SDS011;6733;51.044;3.746;2024-01-30T11:45:50;3.87;;;0.90;;
13327;SDS011;6733;51.044;3.746;2024-01-30T11:48:17;2.77;;;0.93;;
13327;SDS011;6733;51.044;3.746;2024-01-30T11:50:43;4.30;;;1.20;;
13327;SDS011;6733;51.044;3.746;2024-01-30T11:53:10;3.83;;;1.20;;
13327;SDS011;6733;51.044;3.746;2024-01-30T11:55:36;2.83;;;0.83;;
13327;SDS011;6733;51.044;3.746;2024-01-30T11:58:03;2.00;;;1.10;;
13327;SDS011;6733;51.044;3.746;2024-01-30T12:00:30;4.07;;;1.50;;
13327;SDS011;6733;51.044;3.746;2024-01-30T12:02:59;3.47;;;1.20;;
13327;SDS011;6733;51.044;3.746;2024-01-30T12:05:26;3.50;;;1.27;;
13327;SDS011;6733;51.044;3.746;2024-01-30T12:07:53;5.70;;;1.20;;
13327;SDS011;6733;51.044;3.746;2024-01-30T12:10:21;2.10;;;0.90;;
13327;SDS011;6733;51.044;3.746;2024-01-30T12:12:48;3.50;;;1.03;;
13327;SDS011;6733;51.044;3.746;2024-01-30T12:15:16;2.33;;;1.10;;
13327;SDS011;6733;51.044;3.746;2024-01-30T12:17:42;3.03;;;1.10;;
13327;SDS011;6733;51.044;3.746;2024-01-30T12:20:14;4.73;;;1.20;;
13327;SDS011;6733;51.044;3.746;2024-01-30T12:22:42;3.40;;;1.27;;
13327;SDS011;6733;51.044;3.746;2024-01-30T12:25:09;5.27;;;1.30;;
13327;SDS011;6733;51.044;3.746;2024-01-30T12:27:37;2.77;;;1.07;;
13327;SDS011;6733;51.044;3.746;2024-01-30T12:30:10;4.17;;;1.00;;
13327;SDS011;6733;51.044;3.746;2024-01-30T12:32:39;3.77;;;1.30;;
13327;SDS011;6733;51.044;3.746;2024-01-30T12:35:12;2.30;;;1.20;;
13327;SDS011;6733;51.044;3.746;2024-01-30T12:37:40;2.83;;;1.30;;
13327;SDS011;6733;51.044;3.746;2024-01-30T12:40:07;4.33;;;1.27;;
13327;SDS011;6733;51.044;3.746;2024-01-30T12:42:34;4.93;;;1.57;;
13327;SDS011;6733;51.044;3.746;2024-01-30T12:45:01;6.03;;;1.33;;
13327;SDS011;6733;51.044;3.746;2024-01-30T12:47:28;3.00;;;0.93;;
13327;SDS011;6733;51.044;3.746;2024-01-30T12:49:54;4.50;;;1.13;;
13327;SDS011;6733;51.044;3.746;2024-01-30T12:52:21;2.87;;;1.00;;
13327;SDS011;6733;51.044;3.746;2024-01-30T12:54:48;3.20;;;1.20;;
13327;SDS011;6733;51.044;3.746;2024-01-30T12:57:15;2.07;;;1.00;;
13327;SDS011;6733;51.044;3.746;2024-01-30T12:59:45;2.90;;;1.30;;
13327;SDS011;6733;51.044;3.746;2024-01-30T13:02:12;5.90;;;1.03;;
13327;SDS011;6733;51.044;3.746;2024-01-30T13:04:39;3.97;;;1.10;;
13327;SDS011;6733;51.044;3.746;2024-01-30T13:07:05;3.80;;;0.93;;
13327;SDS011;6733;51.044;3.746;2024-01-30T13:09:32;2.40;;;1.20;;
13327;SDS011;6733;51.044;3.746;2024-01-30T13:11:58;2.83;;;1.23;;
13327;SDS011;6733;51.044;3.746;2024-01-30T13:14:25;4.63;;;1.57;;
13327;SDS011;6733;51.044;3.746;2024-01-30T13:16:52;5.07;;;1.13;;
13327;SDS011;6733;51.044;3.746;2024-01-30T13:19:18;3.60;;;1.20;;
13327;SDS011;6733;51.044;3.746;2024-01-30T13:21:44;3.63;;;0.87;;
13327;SDS011;6733;51.044;3.746;2024-01-30T13:24:11;3.97;;;1.00;;
13327;SDS011;6733;51.044;3.746;2024-01-30T13:26:37;1.97;;;1.00;;
13327;SDS011;6733;51.044;3.746;2024-01-30T13:29:03;4.60;;;1.10;;
13327;SDS011;6733;51.044;3.746;2024-01-30T13:31:29;1.80;;;1.00;;
13327;SDS011;6733;51.044;3.746;2024-01-30T13:33:56;4.60;;;1.03;;
13327;SDS011;6733;51.044;3.746;2024-01-30T13:36:22;4.80;;;1.00;;
13327;SDS011;6733;51.044;3.746;2024-01-30T13:38:48;5.37;;;1.20;;
13327;SDS011;6733;51.044;3.746;2024-01-30T13:41:14;4.70;;;1.40;;
13327;SDS011;6733;51.044;3.746;2024-01-30T13:43:43;4.67;;;1.10;;
13327;SDS011;6733;51.044;3.746;2024-01-30T13:46:10;4.40;;;1.23;;
13327;SDS011;6733;51.044;3.746;2024-01-30T13:48:36;2.93;;;1.00;;
13327;SDS011;6733;51.044;3.746;2024-01-30T13:51:02;1.60;;;1.00;;
13327;SDS011;6733;51.044;3.746;2024-01-30T13:53:29;2.83;;;0.83;;
13327;SDS011;6733;51.044;3.746;2024-01-30T13:55:55;2.77;;;0.87;;
13327;SDS011;6733;51.044;3.746;2024-01-30T13:58:21;4.77;;;1.10;;
13327;SDS011;6733;51.044;3.746;2024-01-30T14:00:47;2.53;;;0.93;;
13327;SDS011;6733;51.044;3.746;2024-01-30T14:03:14;3.57;;;1.00;;
13327;SDS011;6733;51.044;3.746;2024-01-30T14:05:41;2.73;;;1.03;;
13327;SDS011;6733;51.044;3.746;2024-01-30T14:08:07;3.17;;;1.00;;
13327;SDS011;6733;51.044;3.746;2024-01-30T14:10:34;3.87;;;1.30;;
13327;SDS011;6733;51.044;3.746;2024-01-30T14:13:00;3.63;;;1.20;;
13327;SDS011;6733;51.044;3.746;2024-01-30T14:15:26;5.13;;;1.27;;
13327;SDS011;6733;51.044;3.746;2024-01-30T14:17:55;4.73;;;1.27;;
13327;SDS011;6733;51.044;3.746;2024-01-30T14:20:21;3.90;;;1.20;;
13327;SDS011;6733;51.044;3.746;2024-01-30T14:22:47;5.20;;;1.40;;
13327;SDS011;6733;51.044;3.746;2024-01-30T14:25:13;3.63;;;1.27;;
13327;SDS011;6733;51.044;3.746;2024-01-30T14:27:41;2.93;;;1.30;;
13327;SDS011;6733;51.044;3.746;2024-01-30T14:30:09;1.73;;;0.90;;
13327;SDS011;6733;51.044;3.746;2024-01-30T14:32:36;3.73;;;1.20;;
13327;SDS011;6733;51.044;3.746;2024-01-30T14:35:04;5.30;;;1.80;;
13327;SDS011;6733;51.044;3.746;2024-01-30T14:37:30;5.63;;;1.97;;
13327;SDS011;6733;51.044;3.746;2024-01-30T14:39:56;4.63;;;1.80;;
13327;SDS011;6733;51.044;3.746;2024-01-30T14:42:23;2.73;;;1.60;;
13327;SDS011;6733;51.044;3.746;2024-01-30T14:44:49;5.40;;;1.80;;
13327;SDS011;6733;51.044;3.746;2024-01-30T14:47:15;6.57;;;2.27;;
13327;SDS011;6733;51.044;3.746;2024-01-30T14:49:41;7.33;;;2.00;;
13327;SDS011;6733;51.044;3.746;2024-01-30T14:52:07;4.77;;;2.03;;
13327;SDS011;6733;51.044;3.746;2024-01-30T14:54:36;6.80;;;2.20;;
13327;SDS011;6733;51.044;3.746;2024-01-30T14:57:02;3.90;;;2.30;;
13327;SDS011;6733;51.044;3.746;2024-01-30T14:59:29;3.70;;;1.73;;
13327;SDS011;6733;51.044;3.746;2024-01-30T15:01:55;2.90;;;1.80;;
13327;SDS011;6733;51.044;3.746;2024-01-30T15:04:21;7.33;;;1.97;;